createdAt,value
2017-10-27T00:00:14.766Z,12.60
2017-10-27T00:02:48.685Z,12.60
2017-10-27T00:05:22.597Z,12.60
2017-10-27T00:07:56.372Z,12.60
2017-10-27T00:10:30.141Z,12.60
2017-10-27T00:13:04.697Z,12.60
2017-10-27T00:15:38.452Z,12.60
2017-10-27T00:18:13.082Z,12.60
2017-10-27T00:20:46.893Z,12.60
2017-10-27T00:23:20.813Z,12.50
2017-10-27T00:25:54.597Z,12.40
2017-10-27T00:28:28.405Z,12.40
2017-10-27T00:31:02.253Z,12.40
2017-10-27T00:33:36.100Z,12.40
2017-10-27T00:36:10.696Z,12.40
2017-10-27T00:38:44.530Z,12.30
2017-10-27T00:41:18.347Z,12.40
2017-10-27T00:43:52.184Z,12.40
2017-10-27T00:46:26.069Z,12.40
2017-10-27T00:49:00.011Z,12.40
2017-10-27T00:51:33.783Z,12.30
2017-10-27T00:54:07.620Z,12.30
2017-10-27T00:56:41.394Z,12.30
2017-10-27T00:59:15.228Z,12.30
2017-10-27T01:01:49.129Z,12.30
2017-10-27T01:04:22.980Z,12.30
2017-10-27T01:06:56.843Z,12.30
2017-10-27T01:09:30.728Z,12.30
2017-10-27T01:12:05.385Z,12.30
2017-10-27T01:14:39.105Z,12.30
2017-10-27T01:17:12.842Z,12.30
2017-10-27T01:19:46.474Z,12.20
2017-10-27T01:22:20.994Z,12.20
2017-10-27T01:24:54.635Z,12.20
2017-10-27T01:27:28.432Z,12.10
2017-10-27T01:30:02.208Z,12.20
2017-10-27T01:32:36.892Z,12.10
2017-10-27T01:35:10.684Z,12.00
2017-10-27T01:37:44.466Z,12.00
2017-10-27T01:40:19.090Z,12.00
2017-10-27T01:42:52.897Z,12.00
2017-10-27T01:45:26.714Z,12.00
2017-10-27T01:48:00.622Z,12.00
2017-10-27T01:50:34.287Z,12.10
2017-10-27T01:53:08.092Z,12.10
2017-10-27T01:55:41.808Z,12.10
2017-10-27T01:58:15.617Z,12.10
2017-10-27T02:00:49.528Z,12.10
2017-10-27T02:06:03.560Z,12.00
2017-10-27T02:08:37.413Z,12.00
2017-10-27T02:11:11.249Z,12.00
2017-10-27T02:13:45.012Z,12.00
2017-10-27T02:16:18.711Z,12.10
2017-10-27T02:18:53.330Z,12.10
2017-10-27T02:21:27.938Z,12.00
2017-10-27T02:24:01.735Z,12.00
2017-10-27T02:26:35.440Z,12.10
2017-10-27T02:29:09.385Z,12.00
2017-10-27T02:31:43.195Z,12.10
2017-10-27T02:34:16.975Z,12.00
2017-10-27T02:36:50.737Z,12.00
2017-10-27T02:39:25.267Z,11.90
2017-10-27T02:41:58.890Z,11.90
2017-10-27T02:44:33.400Z,11.90
2017-10-27T02:47:07.257Z,11.90
2017-10-27T02:49:40.945Z,11.90
2017-10-27T02:52:14.796Z,11.90
2017-10-27T02:54:48.690Z,11.70
2017-10-27T02:57:22.498Z,11.60
2017-10-27T03:00:02.384Z,11.50
2017-10-27T03:02:36.132Z,11.50
2017-10-27T03:05:10.798Z,11.40
2017-10-27T03:07:44.667Z,11.40
2017-10-27T03:10:18.605Z,11.40
2017-10-27T03:12:52.528Z,11.40
2017-10-27T03:15:26.159Z,11.40
2017-10-27T03:18:00.729Z,11.40
2017-10-27T03:20:34.545Z,11.40
2017-10-27T03:23:09.163Z,11.50
2017-10-27T03:25:42.948Z,11.50
2017-10-27T03:28:16.600Z,11.50
2017-10-27T03:30:51.192Z,11.40
2017-10-27T03:33:25.028Z,11.40
2017-10-27T03:35:58.866Z,11.50
2017-10-27T03:38:32.710Z,11.50
2017-10-27T03:41:06.490Z,11.50
2017-10-27T03:43:40.238Z,11.50
2017-10-27T03:46:14.205Z,11.50
2017-10-27T03:48:47.908Z,11.50
2017-10-27T03:51:21.637Z,11.50
2017-10-27T03:53:55.390Z,11.40
2017-10-27T03:56:29.191Z,11.40
2017-10-27T03:59:03.036Z,11.40
2017-10-27T04:01:36.872Z,11.40
2017-10-27T04:04:10.820Z,11.50
2017-10-27T04:06:44.493Z,11.40
2017-10-27T04:09:18.269Z,11.40
2017-10-27T04:11:52.166Z,11.30
2017-10-27T04:14:26.060Z,11.30
2017-10-27T04:16:59.740Z,11.30
2017-10-27T04:19:33.644Z,11.30
2017-10-27T04:22:07.458Z,11.30
2017-10-27T04:24:41.309Z,11.20
2017-10-27T04:27:15.226Z,11.20
2017-10-27T04:29:49.186Z,11.30
2017-10-27T04:32:22.880Z,11.20
2017-10-27T04:34:56.812Z,11.20
2017-10-27T04:37:30.757Z,11.20
2017-10-27T04:40:04.619Z,11.20
2017-10-27T04:42:38.437Z,11.30
2017-10-27T04:45:12.318Z,11.20
2017-10-27T04:47:46.122Z,11.20
2017-10-27T04:50:19.957Z,11.20
2017-10-27T04:52:53.672Z,11.30
2017-10-27T04:55:27.656Z,11.30
2017-10-27T04:58:02.033Z,11.20
2017-10-27T05:00:35.873Z,11.20
2017-10-27T05:03:09.544Z,11.20
2017-10-27T05:05:44.218Z,11.20
2017-10-27T05:08:18.035Z,11.20
2017-10-27T05:10:51.847Z,11.20
2017-10-27T05:13:25.704Z,11.20
2017-10-27T05:15:59.530Z,11.10
2017-10-27T05:18:38.993Z,11.10
2017-10-27T05:21:18.382Z,11.00
2017-10-27T05:23:58.789Z,11.00
2017-10-27T05:26:32.704Z,10.90
2017-10-27T05:29:06.447Z,10.90
2017-10-27T05:31:41.161Z,11.00
2017-10-27T05:34:15.786Z,11.00
2017-10-27T05:36:49.716Z,10.90
2017-10-27T05:39:24.316Z,10.90
2017-10-27T05:41:58.161Z,10.90
2017-10-27T05:44:31.921Z,11.00
2017-10-27T05:47:05.652Z,11.00
2017-10-27T05:49:39.332Z,11.00
2017-10-27T05:52:13.076Z,11.00
2017-10-27T05:54:46.884Z,11.00
2017-10-27T05:57:20.879Z,11.00
2017-10-27T05:59:54.685Z,10.90
2017-10-27T06:02:28.525Z,10.90
2017-10-27T06:05:02.317Z,10.90
2017-10-27T06:07:36.824Z,10.90
2017-10-27T06:10:10.742Z,10.90
2017-10-27T06:12:44.462Z,10.90
2017-10-27T06:15:19.687Z,10.90
2017-10-27T06:17:53.390Z,10.90
2017-10-27T06:20:27.126Z,10.90
2017-10-27T06:23:01.721Z,10.90
2017-10-27T06:25:35.400Z,10.90
2017-10-27T06:28:08.988Z,11.00
2017-10-27T06:30:42.782Z,10.90
2017-10-27T06:33:17.435Z,10.90
2017-10-27T06:35:51.260Z,10.90
2017-10-27T06:38:24.965Z,10.90
2017-10-27T06:40:59.491Z,11.00
2017-10-27T06:43:33.320Z,10.90
2017-10-27T06:46:07.198Z,11.00
2017-10-27T06:48:40.891Z,11.10
2017-10-27T06:51:14.743Z,11.10
2017-10-27T06:53:48.516Z,11.00
2017-10-27T06:56:22.294Z,11.10
2017-10-27T06:58:56.048Z,11.10
2017-10-27T07:01:30.541Z,11.00
2017-10-27T07:04:04.192Z,11.00
2017-10-27T07:06:38.014Z,11.00
2017-10-27T07:09:11.891Z,11.00
2017-10-27T07:11:45.826Z,11.00
2017-10-27T07:14:19.766Z,11.00
2017-10-27T07:16:53.508Z,11.00
2017-10-27T07:19:27.217Z,11.10
2017-10-27T07:22:01.873Z,11.10
2017-10-27T07:24:36.173Z,11.10
2017-10-27T07:27:09.990Z,11.20
2017-10-27T07:29:43.787Z,11.30
2017-10-27T07:32:17.606Z,11.40
2017-10-27T07:34:51.456Z,11.40
2017-10-27T07:37:25.325Z,11.40
2017-10-27T07:39:59.231Z,11.50
2017-10-27T07:42:33.063Z,11.40
2017-10-27T07:45:06.991Z,11.50
2017-10-27T07:47:41.674Z,11.40
2017-10-27T07:50:16.092Z,11.40
2017-10-27T07:52:50.004Z,11.40
2017-10-27T07:55:23.838Z,11.40
2017-10-27T07:57:57.539Z,11.40
2017-10-27T08:00:31.481Z,11.40
2017-10-27T08:03:05.145Z,11.40
2017-10-27T08:05:38.932Z,11.40
2017-10-27T08:08:13.476Z,11.40
2017-10-27T08:10:47.502Z,11.40
2017-10-27T08:13:22.818Z,11.50
2017-10-27T08:15:57.430Z,11.60
2017-10-27T08:18:31.315Z,11.60
2017-10-27T08:21:05.192Z,11.60
2017-10-27T08:23:38.996Z,11.60
2017-10-27T08:26:13.580Z,11.60
2017-10-27T08:28:47.319Z,11.60
2017-10-27T08:31:21.146Z,11.50
2017-10-27T08:33:55.053Z,11.50
2017-10-27T08:36:29.640Z,11.50
2017-10-27T08:39:03.485Z,11.50
2017-10-27T08:41:38.053Z,11.60
2017-10-27T08:44:11.994Z,11.60
2017-10-27T08:46:45.903Z,11.60
2017-10-27T08:49:19.901Z,11.60
2017-10-27T08:51:53.568Z,11.60
2017-10-27T08:54:27.419Z,11.70
2017-10-27T08:57:01.205Z,11.70
2017-10-27T08:59:35.070Z,11.50
2017-10-27T09:02:08.858Z,11.40
2017-10-27T09:04:42.879Z,11.40
2017-10-27T09:07:16.656Z,11.20
2017-10-27T09:09:50.465Z,11.10
2017-10-27T09:12:24.317Z,11.10
2017-10-27T09:14:58.097Z,11.20
2017-10-27T09:17:32.656Z,11.30
2017-10-27T09:20:06.615Z,11.30
2017-10-27T09:22:40.453Z,11.30
2017-10-27T09:25:15.142Z,11.30
2017-10-27T09:27:48.819Z,11.30
2017-10-27T09:30:22.673Z,11.10
2017-10-27T09:32:57.048Z,10.70
2017-10-27T09:35:31.002Z,10.70
2017-10-27T09:38:04.812Z,10.50
2017-10-27T09:40:38.537Z,10.50
2017-10-27T09:43:13.198Z,10.40
2017-10-27T09:45:46.904Z,10.30
2017-10-27T09:48:21.446Z,10.40
2017-10-27T09:50:55.222Z,10.40
2017-10-27T09:53:29.744Z,10.60
2017-10-27T09:56:03.436Z,10.60
2017-10-27T09:58:38.118Z,10.70
2017-10-27T10:01:11.802Z,10.70
2017-10-27T10:03:45.602Z,10.70
2017-10-27T10:06:20.250Z,10.60
2017-10-27T10:08:54.840Z,10.60
2017-10-27T10:11:28.466Z,10.60
2017-10-27T10:14:03.077Z,10.60
2017-10-27T10:16:36.789Z,10.60
2017-10-27T10:19:10.608Z,10.60
2017-10-27T10:21:44.487Z,10.60
2017-10-27T10:24:18.944Z,10.60
2017-10-27T10:26:52.838Z,10.60
2017-10-27T10:29:26.763Z,10.50
2017-10-27T10:32:02.207Z,10.50
2017-10-27T10:34:36.102Z,10.50
2017-10-27T10:37:09.986Z,10.60
2017-10-27T10:39:43.890Z,10.70
2017-10-27T10:42:17.721Z,10.80
2017-10-27T10:44:51.612Z,10.80
2017-10-27T10:47:25.333Z,10.90
2017-10-27T10:49:59.336Z,11.00
2017-10-27T10:52:33.259Z,11.10
2017-10-27T10:55:07.027Z,11.20
2017-10-27T10:57:40.838Z,11.30
2017-10-27T11:00:14.682Z,11.30
2017-10-27T11:02:48.443Z,11.40
2017-10-27T11:05:22.276Z,11.60
2017-10-27T11:07:56.076Z,11.70
2017-10-27T11:10:29.783Z,11.90
2017-10-27T11:13:03.513Z,11.80
2017-10-27T11:15:37.324Z,11.80
2017-10-27T11:18:11.888Z,11.90
2017-10-27T11:20:45.667Z,11.90
2017-10-27T11:23:19.520Z,12.10
2017-10-27T11:25:53.340Z,12.20
2017-10-27T11:28:27.066Z,12.40
2017-10-27T11:31:00.924Z,12.40
2017-10-27T11:33:35.560Z,12.30
2017-10-27T11:36:09.545Z,12.30
2017-10-27T11:38:43.627Z,12.30
2017-10-27T11:41:18.028Z,12.30
2017-10-27T11:43:52.012Z,12.30
2017-10-27T11:46:25.906Z,12.30
2017-10-27T11:48:59.659Z,12.40
2017-10-27T11:51:34.294Z,12.40
2017-10-27T11:54:07.973Z,12.40
2017-10-27T11:59:23.480Z,12.40
2017-10-27T12:01:57.117Z,12.40
2017-10-27T12:04:30.933Z,12.50
2017-10-27T12:07:04.696Z,12.60
2017-10-27T12:09:38.437Z,12.50
2017-10-27T12:12:12.289Z,12.60
2017-10-27T12:14:46.832Z,12.60
2017-10-27T12:17:20.494Z,12.60
2017-10-27T12:19:54.396Z,12.60
2017-10-27T12:22:28.109Z,12.70
2017-10-27T12:25:01.929Z,12.70
2017-10-27T12:27:36.620Z,12.90
2017-10-27T12:30:10.437Z,12.80
2017-10-27T12:32:44.357Z,13.00
2017-10-27T12:35:18.848Z,13.10
2017-10-27T12:37:52.583Z,13.00
2017-10-27T12:40:26.286Z,13.30
2017-10-27T12:43:00.120Z,13.20
2017-10-27T12:45:33.979Z,13.10
2017-10-27T12:48:07.707Z,12.80
2017-10-27T12:50:41.359Z,12.60
2017-10-27T12:53:15.246Z,12.30
2017-10-27T12:55:49.862Z,11.70
2017-10-27T12:58:23.640Z,11.70
2017-10-27T13:00:57.561Z,11.40
2017-10-27T13:03:31.165Z,11.30
2017-10-27T13:06:04.968Z,11.10
2017-10-27T13:08:38.878Z,11.00
2017-10-27T13:11:13.555Z,10.80
2017-10-27T13:13:47.365Z,10.80
2017-10-27T13:16:21.220Z,10.80
2017-10-27T13:18:54.945Z,10.80
2017-10-27T13:21:28.801Z,10.90
2017-10-27T13:24:02.617Z,10.80
2017-10-27T13:26:37.003Z,10.80
2017-10-27T13:29:10.835Z,10.80
2017-10-27T13:31:45.450Z,10.70
2017-10-27T13:34:20.029Z,10.70
2017-10-27T13:36:53.868Z,10.70
2017-10-27T13:39:27.706Z,10.70
2017-10-27T13:42:02.270Z,10.70
2017-10-27T13:44:36.823Z,10.70
2017-10-27T13:47:10.644Z,10.80
2017-10-27T13:49:44.381Z,10.80
2017-10-27T13:52:18.256Z,10.80
2017-10-27T13:54:52.767Z,10.70
2017-10-27T13:57:26.779Z,10.70
2017-10-27T14:00:00.481Z,10.60
2017-10-27T14:02:34.302Z,10.60
2017-10-27T14:05:08.913Z,10.50
2017-10-27T14:07:42.672Z,10.50
2017-10-27T14:10:16.421Z,10.40
2017-10-27T14:12:50.234Z,10.40
2017-10-27T14:15:24.009Z,10.40
2017-10-27T14:17:57.787Z,10.30
2017-10-27T14:20:32.364Z,10.20
2017-10-27T14:23:06.973Z,10.20
2017-10-27T14:25:40.678Z,10.20
2017-10-27T14:28:14.400Z,10.10
2017-10-27T14:30:48.122Z,10.10
2017-10-27T14:33:22.068Z,10.20
2017-10-27T14:35:55.946Z,10.20
2017-10-27T14:38:29.757Z,10.20
2017-10-27T14:41:03.528Z,10.20
2017-10-27T14:43:38.116Z,10.50
2017-10-27T14:46:11.997Z,10.50
2017-10-27T14:48:45.670Z,10.90
2017-10-27T14:51:19.537Z,11.70
2017-10-27T14:53:53.371Z,12.10
2017-10-27T14:56:27.110Z,12.80
2017-10-27T14:59:00.839Z,12.90
2017-10-27T15:01:34.868Z,12.60
2017-10-27T15:04:08.631Z,12.90
2017-10-27T15:06:43.062Z,13.30
2017-10-27T15:09:16.752Z,13.30
2017-10-27T15:11:51.340Z,12.10
2017-10-27T15:14:25.155Z,12.10
2017-10-27T15:16:58.932Z,11.80
2017-10-27T15:19:32.823Z,11.50
2017-10-27T15:22:06.556Z,11.30
2017-10-27T15:24:40.276Z,11.10
2017-10-27T15:27:13.944Z,10.90
2017-10-27T15:29:47.776Z,10.80
2017-10-27T15:32:21.557Z,10.70
2017-10-27T15:34:55.481Z,10.70
2017-10-27T15:37:29.490Z,10.60
2017-10-27T15:40:03.212Z,10.50
2017-10-27T15:42:37.115Z,10.50
2017-10-27T15:45:10.861Z,10.40
2017-10-27T15:47:46.216Z,10.30
2017-10-27T15:50:20.860Z,10.20
2017-10-27T15:52:54.589Z,10.20
2017-10-27T15:55:28.319Z,10.10
2017-10-27T15:58:02.297Z,10.00
2017-10-27T16:00:36.132Z,10.00
2017-10-27T16:03:10.733Z,10.00
2017-10-27T16:05:44.556Z,9.90
2017-10-27T16:08:18.349Z,9.90
2017-10-27T16:10:51.986Z,9.90
2017-10-27T16:13:25.750Z,9.80
2017-10-27T16:16:00.130Z,9.70
2017-10-27T16:18:33.844Z,9.70
2017-10-27T16:21:07.557Z,9.70
2017-10-27T16:23:41.376Z,9.70
2017-10-27T16:26:15.064Z,9.60
2017-10-27T16:28:48.885Z,9.60
2017-10-27T16:31:23.397Z,9.60
2017-10-27T16:33:57.146Z,9.60
2017-10-27T16:36:30.820Z,9.50
2017-10-27T16:39:05.442Z,9.50
2017-10-27T16:41:40.071Z,9.50
2017-10-27T16:44:14.626Z,9.40
2017-10-27T16:46:48.579Z,9.50
2017-10-27T16:49:22.284Z,9.50
2017-10-27T16:51:56.109Z,9.40
2017-10-27T16:54:30.676Z,9.40
2017-10-27T16:57:04.468Z,9.40
2017-10-27T16:59:38.454Z,9.40
2017-10-27T17:02:12.156Z,9.40
2017-10-27T17:04:46.052Z,9.40
2017-10-27T17:07:19.949Z,9.50
2017-10-27T17:09:53.662Z,9.50
2017-10-27T17:12:28.276Z,9.50
2017-10-27T17:15:02.094Z,9.50
2017-10-27T17:17:36.007Z,9.50
2017-10-27T17:20:09.815Z,9.50
2017-10-27T17:22:43.486Z,9.50
2017-10-27T17:25:17.283Z,9.50
2017-10-27T17:27:51.123Z,9.50
2017-10-27T17:30:25.755Z,9.60
2017-10-27T17:33:00.362Z,9.70
2017-10-27T17:35:34.192Z,9.70
2017-10-27T17:38:07.871Z,9.70
2017-10-27T17:40:41.663Z,9.80
2017-10-27T17:43:15.577Z,9.80
2017-10-27T17:45:49.310Z,9.80
2017-10-27T17:48:23.219Z,9.80
2017-10-27T17:50:56.918Z,9.90
2017-10-27T17:53:30.834Z,9.90
2017-10-27T17:56:04.696Z,9.90
2017-10-27T17:58:38.590Z,9.90
2017-10-27T18:01:13.162Z,9.90
2017-10-27T18:03:46.953Z,9.90
2017-10-27T18:06:20.685Z,9.90
2017-10-27T18:08:54.486Z,9.90
2017-10-27T18:11:29.121Z,9.90
2017-10-27T18:14:03.008Z,9.90
2017-10-27T18:16:37.038Z,9.90
2017-10-27T18:19:10.856Z,9.90
2017-10-27T18:21:44.442Z,9.90
2017-10-27T18:24:18.240Z,9.90
2017-10-27T18:26:51.893Z,9.90
2017-10-27T18:29:25.536Z,9.90
2017-10-27T18:31:59.211Z,9.90
2017-10-27T18:34:33.045Z,9.80
2017-10-27T18:37:06.831Z,9.80
2017-10-27T18:39:40.607Z,9.80
2017-10-27T18:42:14.526Z,9.80
2017-10-27T18:44:48.520Z,9.80
2017-10-27T18:47:22.349Z,9.70
2017-10-27T18:49:56.148Z,9.70
2017-10-27T18:52:30.652Z,9.70
2017-10-27T18:55:04.335Z,9.70
2017-10-27T18:57:38.249Z,9.70
2017-10-27T19:00:12.010Z,9.70
2017-10-27T19:02:45.680Z,9.70
2017-10-27T19:05:19.570Z,9.70
2017-10-27T19:07:53.961Z,9.70
2017-10-27T19:10:27.795Z,9.60
2017-10-27T19:13:01.512Z,9.60
2017-10-27T19:15:35.912Z,9.60
2017-10-27T19:18:09.755Z,9.60
2017-10-27T19:20:43.533Z,9.60
2017-10-27T19:23:18.155Z,9.70
2017-10-27T19:25:52.066Z,9.60
2017-10-27T19:28:25.836Z,9.60
2017-10-27T19:30:59.681Z,9.50
2017-10-27T19:33:33.339Z,9.50
2017-10-27T19:36:07.084Z,9.50
2017-10-27T19:38:40.786Z,9.50
2017-10-27T19:41:14.421Z,9.50
2017-10-27T19:43:48.202Z,9.50
2017-10-27T19:46:21.897Z,9.50
2017-10-27T19:48:55.561Z,9.50
2017-10-27T19:51:29.332Z,9.50
2017-10-27T19:54:03.923Z,9.50
2017-10-27T19:56:37.621Z,9.50
2017-10-27T19:59:11.473Z,9.50
2017-10-27T20:01:45.249Z,9.40
2017-10-27T20:04:20.577Z,9.30
2017-10-27T20:06:54.517Z,9.30
2017-10-27T20:09:28.306Z,9.30
2017-10-27T20:12:02.928Z,9.30
2017-10-27T20:14:38.072Z,9.30
2017-10-27T20:17:12.600Z,9.30
2017-10-27T20:19:47.222Z,9.30
2017-10-27T20:22:21.049Z,9.30
2017-10-27T20:24:54.841Z,9.30
2017-10-27T20:27:28.659Z,9.30
2017-10-27T20:30:02.475Z,9.40
2017-10-27T20:32:37.113Z,9.50
2017-10-27T20:35:10.896Z,9.50
2017-10-27T20:37:44.677Z,9.50
2017-10-27T20:40:18.383Z,9.50
2017-10-27T20:42:52.205Z,9.60
2017-10-27T20:45:26.828Z,9.60
2017-10-27T20:48:00.594Z,9.60
2017-10-27T20:50:34.272Z,9.60
2017-10-27T20:53:08.052Z,9.60
2017-10-27T20:55:41.719Z,9.60
2017-10-27T20:58:15.546Z,9.50
2017-10-27T21:00:50.176Z,9.50
2017-10-27T21:03:24.809Z,9.60
2017-10-27T21:05:59.428Z,9.50
2017-10-27T21:08:33.234Z,9.50
2017-10-27T21:11:06.973Z,9.50
2017-10-27T21:13:41.573Z,9.60
2017-10-27T21:16:16.226Z,9.70
2017-10-27T21:18:49.903Z,9.60
2017-10-27T21:21:23.596Z,9.60
2017-10-27T21:23:57.417Z,9.60
2017-10-27T21:26:31.913Z,9.60
2017-10-27T21:29:05.656Z,9.60
2017-10-27T21:31:39.337Z,9.70
2017-10-27T21:34:14.080Z,9.70
2017-10-27T21:36:48.458Z,9.70
2017-10-27T21:39:22.349Z,9.70
2017-10-27T21:41:56.059Z,9.70
2017-10-27T21:44:29.681Z,9.70
2017-10-27T21:47:03.515Z,9.80
2017-10-27T21:49:37.393Z,9.80
2017-10-27T21:52:11.223Z,9.80
2017-10-27T21:54:45.002Z,9.80
2017-10-27T21:57:19.541Z,9.80
2017-10-27T21:59:54.127Z,9.80
2017-10-27T22:02:28.354Z,9.80
2017-10-27T22:05:02.220Z,9.80
2017-10-27T22:07:36.068Z,9.70
2017-10-27T22:10:09.950Z,9.70
2017-10-27T22:12:43.729Z,9.70
2017-10-27T22:15:17.602Z,9.60
2017-10-27T22:17:51.517Z,9.60
2017-10-27T22:20:26.153Z,9.60
2017-10-27T22:22:59.958Z,9.60
2017-10-27T22:25:33.922Z,9.60
2017-10-27T22:28:07.828Z,9.60
2017-10-27T22:30:42.546Z,9.60
2017-10-27T22:33:16.440Z,9.60
2017-10-27T22:35:51.066Z,9.70
2017-10-27T22:38:24.974Z,9.60
2017-10-27T22:41:03.751Z,9.70
2017-10-27T22:43:37.502Z,9.70
2017-10-27T22:46:11.213Z,9.70
2017-10-27T22:48:45.810Z,9.70
2017-10-27T22:51:19.620Z,9.70
2017-10-27T22:53:54.236Z,9.80
2017-10-27T22:56:27.934Z,9.80
2017-10-27T22:59:01.628Z,9.80
2017-10-27T23:01:35.441Z,9.80
2017-10-27T23:04:09.253Z,9.80
2017-10-27T23:06:43.121Z,9.80
2017-10-27T23:09:16.849Z,9.80
2017-10-27T23:11:50.621Z,9.80
2017-10-27T23:14:24.392Z,9.80
2017-10-27T23:16:58.952Z,9.80
2017-10-27T23:19:32.590Z,9.80
2017-10-27T23:22:06.334Z,9.80
2017-10-27T23:24:40.152Z,9.80
2017-10-27T23:27:13.997Z,9.80
2017-10-27T23:29:47.764Z,9.80
2017-10-27T23:32:21.585Z,9.80
2017-10-27T23:34:55.356Z,9.90
2017-10-27T23:37:30.517Z,9.90
2017-10-27T23:40:05.141Z,9.90
2017-10-27T23:42:38.968Z,9.90
2017-10-27T23:45:12.736Z,9.90
2017-10-27T23:47:46.449Z,9.90
2017-10-27T23:50:20.970Z,9.90
2017-10-27T23:52:54.799Z,9.90
2017-10-27T23:55:29.292Z,9.90
2017-10-27T23:58:03.141Z,9.90
